Time;durP1;ratioP1;P1;durP2;ratioP2;P2;SDS_P1;SDS_P2;PMS_P1;PMS_P2;Temp;Humidity;BMP_temperature;BMP_pressure;BME280_temperature;BME280_humidity;BME280_pressure;Samples;Min_cycle;Max_cycle;Signal;HPM_P1;HPM_P2
2021/12/01 00:02:10;;;;;;;0.50;0.50;;;;;;;;;;7381602;19;20326;-77
2021/12/01 00:04:35;;;;;;;0.73;0.32;;;;;;;;;;7381800;19;20110;-78
2021/12/01 00:07:01;;;;;;;1.00;0.47;;;;;;;;;;7384041;19;19999;-78
2021/12/01 00:09:26;;;;;;;0.70;0.40;;;;;;;;;;7380334;19;20030;-78
2021/12/01 00:11:52;;;;;;;0.40;0.40;;;;;;;;;;7380227;19;20010;-78
2021/12/01 00:14:17;;;;;;;0.75;0.40;;;;;;;;;;7381840;19;20013;-77
2021/12/01 00:16:44;;;;;;;0.17;0.17;;;;;;;;;;7379996;19;20712;-77
2021/12/01 00:19:09;;;;;;;0.55;0.47;;;;;;;;;;7385444;19;20346;-78
2021/12/01 00:21:34;;;;;;;0.25;0.25;;;;;;;;;;7386105;19;20473;-78
2021/12/01 00:24:00;;;;;;;0.50;0.50;;;;;;;;;;7389153;19;20018;-78
2021/12/01 00:26:26;;;;;;;1.95;0.40;;;;;;;;;;7383471;19;22157;-78
2021/12/01 00:28:51;;;;;;;0.40;0.30;;;;;;;;;;7387929;19;20335;-78
2021/12/01 00:31:17;;;;;;;0.35;0.35;;;;;;;;;;7386346;19;20783;-77
2021/12/01 00:33:42;;;;;;;0.40;0.40;;;;;;;;;;7387692;19;20014;-77
2021/12/01 00:36:13;;;;;;;0.30;0.30;;;;;;;;;;7386791;19;20035;-78
2021/12/01 00:38:39;;;;;;;0.40;0.40;;;;;;;;;;7384303;19;20049;-77
2021/12/01 00:41:04;;;;;;;0.30;0.30;;;;;;;;;;7384750;19;20031;-78
2021/12/01 00:43:30;;;;;;;0.52;0.47;;;;;;;;;;7386459;19;20010;-78
2021/12/01 00:45:58;;;;;;;1.10;0.47;;;;;;;;;;7384284;19;20014;-77
2021/12/01 00:48:25;;;;;;;0.45;0.45;;;;;;;;;;7385410;19;20093;-77
2021/12/01 00:50:52;;;;;;;0.35;0.32;;;;;;;;;;7383840;19;20029;-77
2021/12/01 00:53:18;;;;;;;0.45;0.30;;;;;;;;;;7385665;19;20555;-77
2021/12/01 00:55:43;;;;;;;0.70;0.47;;;;;;;;;;7386736;19;20007;-77
2021/12/01 00:58:12;;;;;;;0.40;0.40;;;;;;;;;;7383554;19;20011;-77
2021/12/01 01:00:39;;;;;;;0.30;0.30;;;;;;;;;;7383544;19;20524;-77
2021/12/01 01:03:05;;;;;;;0.40;0.40;;;;;;;;;;7387573;19;20009;-77
2021/12/01 01:05:30;;;;;;;0.32;0.32;;;;;;;;;;7384602;19;20082;-76
2021/12/01 01:07:56;;;;;;;0.50;0.50;;;;;;;;;;7388413;19;20044;-76
2021/12/01 01:18:22;;;;;;;0.45;0.43;;;;;;;;;;7385674;19;20041;-78
2021/12/01 01:20:48;;;;;;;0.40;0.40;;;;;;;;;;7384138;19;20066;-78
2021/12/01 01:23:13;;;;;;;0.38;0.38;;;;;;;;;;7390604;19;20482;-78
2021/12/01 01:25:39;;;;;;;0.50;0.50;;;;;;;;;;7384834;19;20489;-77
2021/12/01 01:28:04;;;;;;;0.47;0.40;;;;;;;;;;7383189;19;20014;-78
2021/12/01 01:30:30;;;;;;;0.73;0.40;;;;;;;;;;7379758;19;20033;-78
2021/12/01 01:32:56;;;;;;;0.30;0.30;;;;;;;;;;7382629;19;20014;-77
2021/12/01 01:35:22;;;;;;;0.40;0.40;;;;;;;;;;7378758;19;20015;-77
2021/12/01 01:37:47;;;;;;;0.40;0.40;;;;;;;;;;7383970;19;20027;-77
2021/12/01 01:40:13;;;;;;;1.58;0.30;;;;;;;;;;7382602;19;20017;-77
2021/12/01 01:42:38;;;;;;;0.77;0.40;;;;;;;;;;7380500;19;20028;-77
2021/12/01 01:45:05;;;;;;;0.30;0.30;;;;;;;;;;7380142;19;20067;-78
2021/12/01 01:47:30;;;;;;;0.50;0.38;;;;;;;;;;7381333;19;20043;-78
2021/12/01 01:50:21;;;;;;;0.32;0.32;;;;;;;;;;7376857;19;20010;-77
2021/12/01 01:52:47;;;;;;;0.45;0.40;;;;;;;;;;7383706;19;20011;-77
2021/12/01 01:55:12;;;;;;;0.32;0.32;;;;;;;;;;7380371;19;20003;-77
2021/12/01 01:57:38;;;;;;;0.38;0.38;;;;;;;;;;7380718;19;20021;-77
2021/12/01 02:00:08;;;;;;;0.40;0.25;;;;;;;;;;7378848;19;20039;-78
2021/12/01 02:02:34;;;;;;;0.22;0.22;;;;;;;;;;7378913;19;20021;-78
2021/12/01 02:05:00;;;;;;;0.55;0.47;;;;;;;;;;7381216;19;20011;-77
2021/12/01 02:07:25;;;;;;;0.40;0.40;;;;;;;;;;7379144;19;20006;-78
2021/12/01 02:09:50;;;;;;;0.38;0.38;;;;;;;;;;7379656;19;20018;-77
2021/12/01 02:12:16;;;;;;;0.47;0.30;;;;;;;;;;7382449;19;20318;-78
2021/12/01 02:14:41;;;;;;;0.40;0.40;;;;;;;;;;7379879;19;20010;-77
2021/12/01 02:17:07;;;;;;;0.98;0.50;;;;;;;;;;7378287;19;20018;-77
2021/12/01 02:19:37;;;;;;;0.28;0.28;;;;;;;;;;7379129;19;20021;-77
2021/12/01 02:22:03;;;;;;;0.65;0.47;;;;;;;;;;7381668;19;20022;-77
2021/12/01 02:24:28;;;;;;;0.52;0.43;;;;;;;;;;7380187;19;20499;-77
2021/12/01 02:26:54;;;;;;;0.90;0.45;;;;;;;;;;7382184;19;20017;-77
2021/12/01 02:29:23;;;;;;;0.52;0.30;;;;;;;;;;7380500;19;20018;-77
2021/12/01 02:31:50;;;;;;;0.75;0.30;;;;;;;;;;7381067;19;19998;-75
2021/12/01 02:34:22;;;;;;;0.30;0.20;;;;;;;;;;7384059;19;20018;-77
2021/12/01 02:36:53;;;;;;;0.30;0.30;;;;;;;;;;7383762;19;20018;-77
2021/12/01 02:39:19;;;;;;;0.73;0.50;;;;;;;;;;7380836;19;20002;-77
2021/12/01 02:41:50;;;;;;;0.88;0.75;;;;;;;;;;7380369;19;20023;-78
2021/12/01 02:44:17;;;;;;;0.93;0.50;;;;;;;;;;7379981;19;20016;-77
2021/12/01 02:46:43;;;;;;;0.50;0.30;;;;;;;;;;7380410;19;20560;-77
2021/12/01 02:49:09;;;;;;;0.38;0.38;;;;;;;;;;7382526;19;20003;-77
2021/12/01 02:51:36;;;;;;;0.50;0.38;;;;;;;;;;7383650;19;20098;-76
2021/12/01 02:54:02;;;;;;;1.58;0.80;;;;;;;;;;7379633;19;20006;-76
2021/12/01 02:56:30;;;;;;;1.17;0.65;;;;;;;;;;7381033;19;20010;-76
2021/12/01 02:58:57;;;;;;;0.75;0.20;;;;;;;;;;7383153;19;20070;-76
2021/12/01 03:01:23;;;;;;;0.30;0.30;;;;;;;;;;7376737;19;20018;-76
2021/12/01 03:03:49;;;;;;;0.47;0.38;;;;;;;;;;7374387;19;20011;-76
2021/12/01 03:06:17;;;;;;;1.00;0.50;;;;;;;;;;7376640;19;20016;-76
2021/12/01 03:08:43;;;;;;;0.20;0.17;;;;;;;;;;7379834;19;20014;-77
2021/12/01 03:11:09;;;;;;;0.65;0.35;;;;;;;;;;7376823;19;20022;-77
2021/12/01 03:13:34;;;;;;;0.25;0.20;;;;;;;;;;7381093;19;20014;-76
2021/12/01 03:16:01;;;;;;;0.20;0.20;;;;;;;;;;7381264;19;20718;-76
2021/12/01 03:18:27;;;;;;;1.55;0.25;;;;;;;;;;7379901;19;20272;-77
2021/12/01 03:20:53;;;;;;;0.93;0.57;;;;;;;;;;7379314;19;20007;-77
2021/12/01 03:23:20;;;;;;;0.32;0.30;;;;;;;;;;7382635;19;20003;-77
2021/12/01 03:25:46;;;;;;;0.45;0.38;;;;;;;;;;7381475;19;20035;-77
2021/12/01 03:28:12;;;;;;;0.43;0.40;;;;;;;;;;7378406;19;20010;-77
2021/12/01 03:30:39;;;;;;;0.47;0.40;;;;;;;;;;7381349;19;19999;-77
2021/12/01 03:33:13;;;;;;;1.50;0.60;;;;;;;;;;7382991;19;20014;-76
2021/12/01 03:35:41;;;;;;;0.38;0.22;;;;;;;;;;7382704;19;20303;-76
2021/12/01 03:38:07;;;;;;;0.40;0.40;;;;;;;;;;7382677;19;20015;-76
2021/12/01 03:40:33;;;;;;;0.65;0.30;;;;;;;;;;7378689;19;20027;-76
2021/12/01 03:42:59;;;;;;;0.40;0.40;;;;;;;;;;7382625;19;20035;-77
2021/12/01 03:45:24;;;;;;;0.50;0.50;;;;;;;;;;7381277;19;20014;-76
2021/12/01 03:47:50;;;;;;;1.65;0.75;;;;;;;;;;7382371;19;20074;-76
2021/12/01 03:50:15;;;;;;;1.00;0.63;;;;;;;;;;7380936;19;20337;-77
2021/12/01 03:52:41;;;;;;;0.50;0.50;;;;;;;;;;7384123;19;20665;-76
2021/12/01 03:55:09;;;;;;;0.85;0.70;;;;;;;;;;7388202;19;20002;-76
2021/12/01 03:57:35;;;;;;;1.50;0.70;;;;;;;;;;7389568;19;20002;-76
2021/12/01 04:00:03;;;;;;;0.60;0.57;;;;;;;;;;7386922;19;20010;-76
2021/12/01 04:02:28;;;;;;;1.05;0.70;;;;;;;;;;7382188;19;20373;-77
2021/12/01 04:04:53;;;;;;;0.47;0.43;;;;;;;;;;7383777;19;20452;-76
2021/12/01 04:07:19;;;;;;;0.80;0.70;;;;;;;;;;7385797;19;20003;-77
2021/12/01 04:09:45;;;;;;;1.38;0.80;;;;;;;;;;7387501;19;20032;-77
2021/12/01 04:12:11;;;;;;;0.98;0.60;;;;;;;;;;7388811;19;20025;-78
2021/12/01 04:14:36;;;;;;;1.13;0.65;;;;;;;;;;7386358;19;20070;-75
2021/12/01 04:17:02;;;;;;;0.57;0.38;;;;;;;;;;7385190;19;20019;-76
2021/12/01 04:19:28;;;;;;;0.82;0.70;;;;;;;;;;7384811;19;20006;-75
2021/12/01 04:21:53;;;;;;;1.80;0.65;;;;;;;;;;7387709;19;20007;-76
2021/12/01 04:24:19;;;;;;;0.57;0.57;;;;;;;;;;7385301;19;20487;-76
2021/12/01 04:26:45;;;;;;;1.77;0.73;;;;;;;;;;7387972;19;20017;-77
2021/12/01 04:29:10;;;;;;;0.63;0.57;;;;;;;;;;7386321;19;20010;-76
2021/12/01 04:31:38;;;;;;;0.63;0.57;;;;;;;;;;7381662;19;20014;-75
2021/12/01 04:34:04;;;;;;;0.32;0.32;;;;;;;;;;7386303;19;20337;-77
2021/12/01 04:36:33;;;;;;;0.80;0.50;;;;;;;;;;7386022;19;20444;-78
2021/12/01 04:38:59;;;;;;;0.60;0.52;;;;;;;;;;7387868;19;20033;-76
2021/12/01 04:41:26;;;;;;;0.68;0.50;;;;;;;;;;7383728;19;20015;-77
2021/12/01 04:43:53;;;;;;;0.60;0.60;;;;;;;;;;7386688;19;20007;-78
2021/12/01 04:46:20;;;;;;;0.70;0.70;;;;;;;;;;7385840;19;20023;-79
2021/12/01 04:48:46;;;;;;;0.70;0.63;;;;;;;;;;7386823;19;20028;-75
2021/12/01 04:51:11;;;;;;;0.70;0.70;;;;;;;;;;7385138;19;20036;-76
2021/12/01 04:53:38;;;;;;;0.65;0.50;;;;;;;;;;7388347;19;20003;-79
2021/12/01 04:56:05;;;;;;;1.13;0.75;;;;;;;;;;7376232;19;20018;-76
2021/12/01 04:58:30;;;;;;;1.63;0.77;;;;;;;;;;7384280;19;20081;-77
2021/12/01 05:01:01;;;;;;;1.40;0.60;;;;;;;;;;7380881;19;20027;-76
2021/12/01 05:03:26;;;;;;;0.90;0.90;;;;;;;;;;7383193;19;20039;-78
2021/12/01 05:05:52;;;;;;;0.88;0.80;;;;;;;;;;7381193;19;20019;-75
2021/12/01 05:08:20;;;;;;;0.85;0.75;;;;;;;;;;7379787;19;20164;-75
2021/12/01 05:10:45;;;;;;;0.80;0.70;;;;;;;;;;7381933;19;20018;-76
2021/12/01 05:13:10;;;;;;;0.80;0.80;;;;;;;;;;7386994;19;20014;-78
2021/12/01 05:15:36;;;;;;;0.85;0.85;;;;;;;;;;7386016;19;20035;-75
2021/12/01 05:18:01;;;;;;;1.17;0.90;;;;;;;;;;7388074;19;20112;-76
2021/12/01 05:20:27;;;;;;;1.63;0.90;;;;;;;;;;7383023;19;21163;-79
2021/12/01 05:22:52;;;;;;;0.70;0.70;;;;;;;;;;7381063;19;20006;-77
2021/12/01 05:25:17;;;;;;;0.73;0.73;;;;;;;;;;7385355;19;19994;-78
2021/12/01 05:27:43;;;;;;;0.77;0.77;;;;;;;;;;7384601;19;20007;-77
2021/12/01 05:30:09;;;;;;;1.08;0.65;;;;;;;;;;7381429;19;20615;-76
2021/12/01 05:32:34;;;;;;;1.25;0.80;;;;;;;;;;7382370;19;20129;-76
2021/12/01 05:35:00;;;;;;;1.55;0.80;;;;;;;;;;7383559;19;20002;-76
2021/12/01 05:37:25;;;;;;;0.82;0.80;;;;;;;;;;7382187;19;20078;-77
2021/12/01 05:39:51;;;;;;;1.08;0.65;;;;;;;;;;7383470;19;20031;-77
2021/12/01 05:42:17;;;;;;;0.95;0.85;;;;;;;;;;7385064;19;20118;-76
2021/12/01 05:44:43;;;;;;;0.65;0.65;;;;;;;;;;7385835;19;20010;-77
2021/12/01 05:47:09;;;;;;;1.02;0.90;;;;;;;;;;7380037;19;20026;-76
2021/12/01 05:49:41;;;;;;;1.00;0.73;;;;;;;;;;7382237;19;20390;-76
2021/12/01 05:52:08;;;;;;;0.93;0.90;;;;;;;;;;7382107;19;20038;-77
2021/12/01 05:54:33;;;;;;;1.48;0.70;;;;;;;;;;7378959;19;20002;-78
2021/12/01 05:56:58;;;;;;;1.30;0.75;;;;;;;;;;7379199;19;20013;-77
2021/12/01 05:59:24;;;;;;;1.52;0.80;;;;;;;;;;7379309;19;20465;-77
2021/12/01 06:01:49;;;;;;;1.33;0.80;;;;;;;;;;7373159;19;20370;-76
2021/12/01 06:04:15;;;;;;;0.93;0.80;;;;;;;;;;7377139;19;20023;-76
2021/12/01 06:06:40;;;;;;;1.52;1.00;;;;;;;;;;7380238;19;20017;-77
2021/12/01 06:09:06;;;;;;;0.80;0.80;;;;;;;;;;7375372;19;20345;-76
2021/12/01 06:11:31;;;;;;;1.85;0.98;;;;;;;;;;7379161;19;20018;-76
2021/12/01 06:13:57;;;;;;;1.00;0.80;;;;;;;;;;7378978;19;20017;-77
2021/12/01 06:16:23;;;;;;;1.15;0.80;;;;;;;;;;7377625;19;20434;-73
2021/12/01 06:18:49;;;;;;;3.42;1.00;;;;;;;;;;7379846;19;20010;-76
2021/12/01 06:21:15;;;;;;;1.00;1.00;;;;;;;;;;7372897;19;20039;-72
2021/12/01 06:23:41;;;;;;;0.90;0.80;;;;;;;;;;7380619;19;20003;-72
2021/12/01 06:26:06;;;;;;;1.75;0.82;;;;;;;;;;7379337;19;20614;-72
2021/12/01 06:28:31;;;;;;;0.80;0.80;;;;;;;;;;7382368;19;20504;-72
2021/12/01 06:30:57;;;;;;;1.52;1.10;;;;;;;;;;7376376;19;20351;-73
2021/12/01 06:33:23;;;;;;;1.52;1.13;;;;;;;;;;7379850;19;19998;-73
2021/12/01 06:35:49;;;;;;;1.00;0.90;;;;;;;;;;7380055;19;20095;-72
2021/12/01 06:38:15;;;;;;;1.65;0.60;;;;;;;;;;7381691;19;19998;-74
2021/12/01 06:40:41;;;;;;;1.27;0.70;;;;;;;;;;7380869;19;20007;-71
2021/12/01 06:43:06;;;;;;;0.70;0.60;;;;;;;;;;7381583;19;20018;-75
2021/12/01 06:45:32;;;;;;;0.63;0.63;;;;;;;;;;7377929;19;20014;-75
2021/12/01 06:47:57;;;;;;;0.70;0.70;;;;;;;;;;7374257;19;20014;-75
2021/12/01 06:50:23;;;;;;;0.80;0.80;;;;;;;;;;7381082;19;20018;-74
2021/12/01 06:52:48;;;;;;;0.95;0.70;;;;;;;;;;7382065;19;20501;-74
2021/12/01 06:55:14;;;;;;;1.30;0.57;;;;;;;;;;7382486;19;20022;-74
2021/12/01 06:57:40;;;;;;;0.60;0.60;;;;;;;;;;7382430;19;20003;-73
2021/12/01 07:00:10;;;;;;;1.08;0.70;;;;;;;;;;7381911;19;20158;-74
2021/12/01 07:02:38;;;;;;;1.60;1.02;;;;;;;;;;7378358;19;20018;-74
2021/12/01 07:05:04;;;;;;;0.70;0.70;;;;;;;;;;7382494;19;20027;-74
2021/12/01 07:07:30;;;;;;;0.60;0.60;;;;;;;;;;7382047;19;20477;-75
2021/12/01 07:09:55;;;;;;;1.02;0.80;;;;;;;;;;7382980;19;20517;-73
2021/12/01 07:12:22;;;;;;;0.80;0.80;;;;;;;;;;7381120;19;20074;-76
2021/12/01 07:14:49;;;;;;;1.05;0.80;;;;;;;;;;7383012;19;20007;-73
2021/12/01 07:17:14;;;;;;;1.98;0.80;;;;;;;;;;7382696;19;20302;-75
2021/12/01 07:19:39;;;;;;;0.60;0.60;;;;;;;;;;7381562;19;20025;-73
2021/12/01 07:22:05;;;;;;;0.50;0.45;;;;;;;;;;7381541;19;20009;-76
2021/12/01 07:24:31;;;;;;;0.80;0.80;;;;;;;;;;7378153;19;20024;-74
2021/12/01 07:26:57;;;;;;;0.50;0.50;;;;;;;;;;7381802;19;20066;-75
2021/12/01 07:29:22;;;;;;;0.52;0.52;;;;;;;;;;7381461;19;20091;-75
2021/12/01 07:31:48;;;;;;;0.63;0.60;;;;;;;;;;7380783;19;20429;-74
2021/12/01 07:34:14;;;;;;;0.50;0.50;;;;;;;;;;7383104;19;20429;-75
2021/12/01 07:36:40;;;;;;;1.17;0.80;;;;;;;;;;7382711;19;20435;-75
2021/12/01 07:39:05;;;;;;;3.13;0.70;;;;;;;;;;7380870;19;20031;-74
2021/12/01 07:41:31;;;;;;;0.70;0.45;;;;;;;;;;7381205;19;20019;-73
2021/12/01 07:43:56;;;;;;;0.50;0.50;;;;;;;;;;7379063;19;20469;-73
2021/12/01 07:46:22;;;;;;;0.82;0.60;;;;;;;;;;7380349;19;20003;-76
2021/12/01 07:48:47;;;;;;;1.17;0.57;;;;;;;;;;7379673;19;20011;-75
2021/12/01 07:51:14;;;;;;;2.95;0.75;;;;;;;;;;7379719;19;20014;-75
2021/12/01 07:53:39;;;;;;;1.67;0.60;;;;;;;;;;7381156;19;20421;-76
2021/12/01 07:56:05;;;;;;;1.08;0.80;;;;;;;;;;7381025;19;20484;-75
2021/12/01 07:58:30;;;;;;;1.08;0.60;;;;;;;;;;7375852;19;20003;-76
2021/12/01 08:00:56;;;;;;;0.63;0.50;;;;;;;;;;7377901;19;20021;-75
2021/12/01 08:03:21;;;;;;;0.63;0.63;;;;;;;;;;7383147;19;20006;-76
2021/12/01 08:05:47;;;;;;;0.82;0.65;;;;;;;;;;7381881;19;20153;-76
2021/12/01 08:08:12;;;;;;;0.95;0.50;;;;;;;;;;7379065;19;20380;-77
2021/12/01 08:10:37;;;;;;;1.00;0.70;;;;;;;;;;7377474;19;20007;-75
2021/12/01 08:13:04;;;;;;;0.65;0.63;;;;;;;;;;7381316;19;20006;-76
2021/12/01 08:15:30;;;;;;;0.60;0.60;;;;;;;;;;7378303;19;20017;-74
2021/12/01 08:17:55;;;;;;;0.50;0.50;;;;;;;;;;7378140;19;20077;-76
2021/12/01 08:20:21;;;;;;;0.93;0.55;;;;;;;;;;7376587;19;20039;-75
2021/12/01 08:22:47;;;;;;;0.70;0.63;;;;;;;;;;7379071;19;20006;-78
2021/12/01 08:25:14;;;;;;;0.52;0.52;;;;;;;;;;7378917;19;20007;-76
2021/12/01 08:27:39;;;;;;;1.20;0.73;;;;;;;;;;7379063;19;20006;-76
2021/12/01 08:30:06;;;;;;;1.17;0.80;;;;;;;;;;7378902;19;20026;-76
2021/12/01 08:32:32;;;;;;;2.17;0.80;;;;;;;;;;7381538;19;20010;-76
2021/12/01 08:34:57;;;;;;;1.17;0.73;;;;;;;;;;7380541;19;20102;-75
2021/12/01 08:37:23;;;;;;;0.80;0.70;;;;;;;;;;7381177;19;20840;-77
2021/12/01 08:39:50;;;;;;;1.30;1.17;;;;;;;;;;7383349;19;20070;-76
2021/12/01 08:42:20;;;;;;;0.95;0.77;;;;;;;;;;7386885;19;20006;-76
2021/12/01 08:44:47;;;;;;;1.83;0.90;;;;;;;;;;7387936;19;20109;-77
2021/12/01 08:47:14;;;;;;;1.13;0.60;;;;;;;;;;7388673;19;20417;-76
2021/12/01 08:49:40;;;;;;;0.63;0.45;;;;;;;;;;7383412;19;20014;-74
2021/12/01 08:52:06;;;;;;;0.95;0.60;;;;;;;;;;7388002;19;20500;-80
2021/12/01 08:54:31;;;;;;;0.63;0.63;;;;;;;;;;7388305;19;20014;-80
2021/12/01 08:56:57;;;;;;;0.82;0.70;;;;;;;;;;7387620;19;20010;-77
2021/12/01 08:59:23;;;;;;;1.08;0.50;;;;;;;;;;7385847;19;20025;-79
2021/12/01 09:01:49;;;;;;;0.60;0.60;;;;;;;;;;7384540;19;20011;-81
2021/12/01 09:04:14;;;;;;;0.60;0.60;;;;;;;;;;7384596;19;20023;-82
2021/12/01 09:06:40;;;;;;;1.65;0.90;;;;;;;;;;7386718;19;20006;-77
2021/12/01 09:09:05;;;;;;;3.33;0.68;;;;;;;;;;7386817;19;20010;-77
2021/12/01 09:11:31;;;;;;;2.15;0.40;;;;;;;;;;7384742;19;20053;-79
2021/12/01 09:13:56;;;;;;;0.68;0.50;;;;;;;;;;7387742;19;20006;-77
2021/12/01 09:16:22;;;;;;;0.40;0.40;;;;;;;;;;7383113;19;19991;-77
2021/12/01 09:18:47;;;;;;;0.80;0.57;;;;;;;;;;7384731;19;20024;-79
2021/12/01 09:21:13;;;;;;;2.95;0.50;;;;;;;;;;7385610;19;20010;-78
2021/12/01 09:23:38;;;;;;;0.57;0.43;;;;;;;;;;7387845;19;20370;-77
2021/12/01 09:26:04;;;;;;;0.82;0.50;;;;;;;;;;7387126;19;20892;-77
2021/12/01 09:28:29;;;;;;;0.90;0.47;;;;;;;;;;7386293;19;20027;-81
2021/12/01 09:30:56;;;;;;;0.50;0.50;;;;;;;;;;7382653;19;20932;-79
2021/12/01 09:33:22;;;;;;;0.65;0.63;;;;;;;;;;7387637;19;20003;-79
2021/12/01 09:35:47;;;;;;;0.40;0.40;;;;;;;;;;7389134;19;19999;-76
2021/12/01 09:38:16;;;;;;;1.60;0.60;;;;;;;;;;7385595;19;20037;-77
2021/12/01 09:40:51;;;;;;;0.52;0.47;;;;;;;;;;7382603;19;20382;-76
2021/12/01 09:43:21;;;;;;;1.30;0.50;;;;;;;;;;7385340;19;20007;-78
2021/12/01 09:45:47;;;;;;;0.98;0.50;;;;;;;;;;7384389;19;20014;-79
2021/12/01 09:48:13;;;;;;;0.43;0.40;;;;;;;;;;7382255;19;20034;-78
2021/12/01 09:50:39;;;;;;;0.82;0.50;;;;;;;;;;7380250;19;20018;-77
2021/12/01 09:53:05;;;;;;;0.30;0.30;;;;;;;;;;7386852;19;20027;-80
2021/12/01 09:55:30;;;;;;;0.32;0.30;;;;;;;;;;7384456;19;20014;-75
2021/12/01 09:58:16;;;;;;;0.40;0.30;;;;;;;;;;7384425;19;20003;-79
2021/12/01 10:00:46;;;;;;;0.50;0.40;;;;;;;;;;7381006;19;20011;-76
2021/12/01 10:03:12;;;;;;;0.85;0.50;;;;;;;;;;7382512;19;20107;-76
2021/12/01 10:06:04;;;;;;;0.52;0.52;;;;;;;;;;7382134;19;20125;-77
2021/12/01 10:08:43;;;;;;;1.40;0.30;;;;;;;;;;7381319;19;20014;-75
2021/12/01 10:11:13;;;;;;;0.50;0.45;;;;;;;;;;7385591;19;20005;-75
2021/12/01 10:13:41;;;;;;;0.50;0.32;;;;;;;;;;7382905;19;20126;-75
2021/12/01 10:16:09;;;;;;;0.88;0.40;;;;;;;;;;7385292;19;20130;-75
2021/12/01 10:18:41;;;;;;;0.68;0.32;;;;;;;;;;7381288;19;20023;-75
2021/12/01 10:21:20;;;;;;;0.60;0.40;;;;;;;;;;7383459;19;20070;-74
2021/12/01 10:23:49;;;;;;;0.63;0.45;;;;;;;;;;7382812;19;20370;-75
2021/12/01 10:26:24;;;;;;;1.50;1.08;;;;;;;;;;7385424;19;20083;-76
2021/12/01 10:29:18;;;;;;;2.88;1.10;;;;;;;;;;7383368;19;20515;-74
2021/12/01 10:31:51;;;;;;;2.83;1.92;;;;;;;;;;7382002;19;20118;-75
2021/12/01 10:34:31;;;;;;;1.55;0.63;;;;;;;;;;7385319;19;20094;-74
2021/12/01 10:37:26;;;;;;;0.30;0.30;;;;;;;;;;7384329;19;20469;-74
2021/12/01 10:40:04;;;;;;;0.60;0.60;;;;;;;;;;7381842;19;20063;-74
2021/12/01 10:42:30;;;;;;;4.40;2.28;;;;;;;;;;7381555;19;20021;-73
2021/12/01 10:44:57;;;;;;;6.43;3.90;;;;;;;;;;7383466;19;20010;-72
2021/12/01 10:47:23;;;;;;;2.58;1.70;;;;;;;;;;7382867;19;20008;-74
2021/12/01 10:49:48;;;;;;;1.65;1.00;;;;;;;;;;7380721;19;20007;-74
2021/12/01 10:52:36;;;;;;;1.05;0.60;;;;;;;;;;7384665;19;20006;-74
2021/12/01 10:55:14;;;;;;;0.50;0.50;;;;;;;;;;7386047;19;20041;-73
2021/12/01 10:57:49;;;;;;;0.63;0.60;;;;;;;;;;7383524;19;20326;-73
2021/12/01 11:00:22;;;;;;;0.45;0.45;;;;;;;;;;7379395;19;20039;-76
2021/12/01 11:02:48;;;;;;;2.30;1.88;;;;;;;;;;7382791;19;20011;-75
2021/12/01 11:05:33;;;;;;;0.70;0.68;;;;;;;;;;7384905;19;20010;-74
2021/12/01 11:08:19;;;;;;;0.50;0.50;;;;;;;;;;7384234;19;20497;-74
2021/12/01 11:10:48;;;;;;;0.70;0.50;;;;;;;;;;7379389;19;20031;-74
2021/12/01 11:13:14;;;;;;;0.60;0.60;;;;;;;;;;7383416;19;20002;-73
2021/12/01 11:15:45;;;;;;;0.32;0.32;;;;;;;;;;7384876;19;20478;-73
2021/12/01 11:18:36;;;;;;;0.30;0.30;;;;;;;;;;7384416;19;20351;-74
2021/12/01 11:21:14;;;;;;;1.33;0.40;;;;;;;;;;7380255;19;20021;-73
2021/12/01 11:23:46;;;;;;;0.32;0.32;;;;;;;;;;7383049;19;20016;-74
2021/12/01 11:26:11;;;;;;;0.68;0.43;;;;;;;;;;7383351;19;20018;-74
2021/12/01 11:28:46;;;;;;;0.43;0.38;;;;;;;;;;7380986;19;20023;-74
2021/12/01 11:31:18;;;;;;;;;;;;;;;;;;7375826;19;20552;-75
2021/12/01 11:33:44;;;;;;;1.77;1.00;;;;;;;;;;7382199;19;19923;-74
2021/12/01 11:36:12;;;;;;;0.50;0.50;;;;;;;;;;7379793;19;20314;-74
2021/12/01 11:38:38;;;;;;;0.82;0.40;;;;;;;;;;7377495;19;20091;-76
2021/12/01 11:41:06;;;;;;;1.00;0.40;;;;;;;;;;7379784;19;20010;-73
2021/12/01 11:43:33;;;;;;;0.60;0.60;;;;;;;;;;7380544;19;20019;-72
2021/12/01 11:45:59;;;;;;;0.50;0.50;;;;;;;;;;7377766;19;20022;-73
2021/12/01 11:48:28;;;;;;;0.70;0.50;;;;;;;;;;7378567;19;20014;-75
2021/12/01 11:51:15;;;;;;;0.60;0.60;;;;;;;;;;7379576;19;20351;-74
2021/12/01 11:54:05;;;;;;;0.45;0.40;;;;;;;;;;7382508;19;20002;-77
2021/12/01 11:56:34;;;;;;;0.65;0.52;;;;;;;;;;7380790;19;20014;-75
2021/12/01 11:58:59;;;;;;;0.52;0.52;;;;;;;;;;7380861;19;20501;-75
2021/12/01 12:01:24;;;;;;;0.50;0.50;;;;;;;;;;7380750;19;20011;-74
2021/12/01 12:03:53;;;;;;;1.00;0.65;;;;;;;;;;7378107;19;20024;-74
2021/12/01 12:06:23;;;;;;;0.40;0.40;;;;;;;;;;7382837;19;20003;-72
2021/12/01 12:08:59;;;;;;;0.90;0.50;;;;;;;;;;7379265;19;20186;-75
2021/12/01 12:11:38;;;;;;;1.20;0.50;;;;;;;;;;7381080;19;20003;-72
2021/12/01 12:14:08;;;;;;;1.05;0.73;;;;;;;;;;7384261;19;20007;-73
2021/12/01 12:16:34;;;;;;;3.08;0.80;;;;;;;;;;7389157;19;20014;-75
2021/12/01 12:19:00;;;;;;;2.58;0.70;;;;;;;;;;7388720;19;20082;-76
2021/12/01 12:24:13;;;;;;;2.58;1.20;;;;;;;;;;7390552;19;20031;-73
2021/12/01 12:26:49;;;;;;;1.10;0.82;;;;;;;;;;7390384;19;20356;-73
2021/12/01 12:29:17;;;;;;;;;;;;;;;;;;7388257;19;20002;-74
2021/12/01 12:31:46;;;;;;;0.50;0.50;;;;;;;;;;7384566;19;21269;-73
2021/12/01 12:34:23;;;;;;;2.85;0.50;;;;;;;;;;7388128;19;20021;-72
2021/12/01 12:36:50;;;;;;;0.70;0.50;;;;;;;;;;7388540;19;20429;-74
2021/12/01 12:39:23;;;;;;;2.70;0.73;;;;;;;;;;7385187;19;19999;-75
2021/12/01 12:41:54;;;;;;;0.32;0.32;;;;;;;;;;7386588;19;20476;-72
2021/12/01 12:44:48;;;;;;;0.50;0.40;;;;;;;;;;7386230;19;20471;-72
2021/12/01 12:47:16;;;;;;;0.52;0.32;;;;;;;;;;7387411;19;20010;-72
2021/12/01 12:49:48;;;;;;;0.55;0.30;;;;;;;;;;7384916;19;20006;-74
2021/12/01 12:52:26;;;;;;;0.38;0.30;;;;;;;;;;7381943;19;20792;-72
2021/12/01 12:55:06;;;;;;;0.25;0.25;;;;;;;;;;7388439;19;20388;-72
2021/12/01 12:57:54;;;;;;;4.82;0.40;;;;;;;;;;7382741;19;20011;-73
2021/12/01 13:00:29;;;;;;;1.30;0.40;;;;;;;;;;7383513;19;20118;-73
2021/12/01 13:02:57;;;;;;;0.52;0.52;;;;;;;;;;7385380;19;20019;-73
2021/12/01 13:05:37;;;;;;;1.90;0.60;;;;;;;;;;7385188;19;20014;-73
2021/12/01 13:08:23;;;;;;;1.27;0.43;;;;;;;;;;7383383;19;20014;-72
2021/12/01 13:10:48;;;;;;;1.20;0.30;;;;;;;;;;7383467;19;20388;-72
2021/12/01 13:13:22;;;;;;;1.38;0.70;;;;;;;;;;7384917;19;20003;-74
2021/12/01 13:15:49;;;;;;;0.52;0.52;;;;;;;;;;7387298;19;20014;-72
2021/12/01 13:18:18;;;;;;;0.45;0.40;;;;;;;;;;7382028;19;20020;-72
2021/12/01 13:20:47;;;;;;;0.32;0.22;;;;;;;;;;7383530;19;20025;-72
2021/12/01 13:23:14;;;;;;;0.20;0.20;;;;;;;;;;7383142;19;20066;-73
2021/12/01 13:25:51;;;;;;;0.30;0.30;;;;;;;;;;7386165;19;20010;-73
2021/12/01 13:28:27;;;;;;;0.50;0.20;;;;;;;;;;7381677;19;20498;-73
2021/12/01 13:30:55;;;;;;;0.40;0.40;;;;;;;;;;7383900;19;20006;-74
2021/12/01 13:33:21;;;;;;;0.88;0.40;;;;;;;;;;7386687;19;20013;-73
2021/12/01 13:35:46;;;;;;;0.40;0.40;;;;;;;;;;7386630;19;19998;-73
2021/12/01 13:38:13;;;;;;;0.55;0.30;;;;;;;;;;7385870;19;20022;-72
2021/12/01 13:40:39;;;;;;;0.40;0.40;;;;;;;;;;7383839;19;20520;-73
2021/12/01 13:43:19;;;;;;;1.00;0.32;;;;;;;;;;7387126;19;19994;-72
2021/12/01 13:45:59;;;;;;;0.77;0.30;;;;;;;;;;7386281;19;20425;-73
2021/12/01 13:48:25;;;;;;;0.47;0.30;;;;;;;;;;7385241;19;20085;-73
2021/12/01 13:51:02;;;;;;;0.40;0.35;;;;;;;;;;7385172;19;20487;-72
2021/12/01 13:53:28;;;;;;;0.30;0.30;;;;;;;;;;7383003;19;20007;-73
2021/12/01 13:55:54;;;;;;;0.47;0.43;;;;;;;;;;7383042;19;20357;-72
2021/12/01 13:58:19;;;;;;;0.77;0.50;;;;;;;;;;7383872;19;20545;-73
2021/12/01 14:00:55;;;;;;;1.65;0.60;;;;;;;;;;7385305;19;20419;-75
2021/12/01 14:03:22;;;;;;;0.45;0.30;;;;;;;;;;7382635;19;20022;-72
2021/12/01 14:05:51;;;;;;;0.63;0.40;;;;;;;;;;7383514;19;20013;-77
2021/12/01 14:08:29;;;;;;;1.23;0.50;;;;;;;;;;7383843;19;20019;-73
2021/12/01 14:11:00;;;;;;;1.00;0.80;;;;;;;;;;7383504;19;20009;-73
2021/12/01 14:13:28;;;;;;;0.70;0.70;;;;;;;;;;7386138;19;20019;-73
2021/12/01 14:15:54;;;;;;;1.65;1.15;;;;;;;;;;7382398;19;20351;-73
2021/12/01 14:18:20;;;;;;;1.10;0.50;;;;;;;;;;7385788;19;20074;-73
2021/12/01 14:20:46;;;;;;;0.40;0.40;;;;;;;;;;7382455;19;20003;-73
2021/12/01 14:23:13;;;;;;;1.48;0.38;;;;;;;;;;7385063;19;20037;-73
2021/12/01 14:25:48;;;;;;;0.40;0.30;;;;;;;;;;7385534;19;20015;-78
2021/12/01 14:28:14;;;;;;;0.70;0.40;;;;;;;;;;7383566;19;20337;-73
2021/12/01 14:30:44;;;;;;;4.85;0.70;;;;;;;;;;7385454;19;20007;-73
2021/12/01 14:33:11;;;;;;;0.28;0.28;;;;;;;;;;7380438;19;20022;-71
2021/12/01 14:35:37;;;;;;;0.43;0.30;;;;;;;;;;7382511;19;20316;-75
2021/12/01 14:38:04;;;;;;;0.60;0.35;;;;;;;;;;7376120;19;20065;-74
2021/12/01 14:40:29;;;;;;;1.60;0.63;;;;;;;;;;7380379;19;20370;-73
2021/12/01 14:42:57;;;;;;;1.45;0.40;;;;;;;;;;7380436;19;20032;-74
2021/12/01 14:45:28;;;;;;;1.58;0.82;;;;;;;;;;7383493;19;20014;-73
2021/12/01 14:48:02;;;;;;;1.23;0.43;;;;;;;;;;7380638;19;20032;-74
2021/12/01 14:50:27;;;;;;;0.28;0.20;;;;;;;;;;7378808;19;20010;-73
2021/12/01 14:52:55;;;;;;;0.50;0.22;;;;;;;;;;7382665;19;20027;-72
2021/12/01 14:55:24;;;;;;;0.30;0.17;;;;;;;;;;7380698;19;20017;-72
2021/12/01 14:57:53;;;;;;;0.32;0.20;;;;;;;;;;7380696;19;20009;-72
2021/12/01 15:00:25;;;;;;;1.08;0.30;;;;;;;;;;7383065;19;20030;-71